South Garden, Virginia
Current Conditions -  °F | °C
As of 3:35 PM on Saturday 20 Dec 2014 (Local Time) from KW13 Reporting Station
Overcast Overcast  
Wind Chill: 30°   Ceiling: 8000
Heat Index: 35°   Visibility: 10mi
Dew Point: 25°   Wind: 6mph
Humidity: 66%   Direction: 110°ESE
Pressure: 30.17"   Gusts: NA
Location:  37.9538°N, 78.6933°W
Report Text: KW13 202035Z AUTO 11005KT 10SM OVC080 02/M04 A3017 RMK AO1 T00191039
Loading
Personal Weather Stations






























Interactive Weather Map New forecast layout! Learn more

10-Day Weather Forecast

Advertisements
Track Severe Weather on mobile